sensor_id;sensor_type;location;lat;lon;timestamp;pressure;altitude;pressure_sealevel;temperature;humidity
27210;BME280;14721;42.668;23.386;2022-07-29T00:00:44;95430.41;;;19.80;95.99
27210;BME280;14721;42.668;23.386;2022-07-29T00:03:12;95442.25;;;19.79;96.16
27210;BME280;14721;42.668;23.386;2022-07-29T00:05:42;95433.94;;;19.80;96.13
27210;BME280;14721;42.668;23.386;2022-07-29T00:08:08;95429.19;;;19.74;95.98
27210;BME280;14721;42.668;23.386;2022-07-29T00:10:34;95445.97;;;19.78;96.64
27210;BME280;14721;42.668;23.386;2022-07-29T00:13:00;95447.84;;;19.77;95.59
27210;BME280;14721;42.668;23.386;2022-07-29T00:15:27;95456.47;;;19.73;96.09
27210;BME280;14721;42.668;23.386;2022-07-29T00:17:52;95438.84;;;19.69;96.00
27210;BME280;14721;42.668;23.386;2022-07-29T00:20:18;95452.09;;;19.80;95.75
27210;BME280;14721;42.668;23.386;2022-07-29T00:22:43;95442.25;;;19.71;95.57
27210;BME280;14721;42.668;23.386;2022-07-29T00:25:09;95449.88;;;19.75;95.70
27210;BME280;14721;42.668;23.386;2022-07-29T00:27:37;95464.13;;;19.85;96.03
27210;BME280;14721;42.668;23.386;2022-07-29T00:30:03;95450.06;;;19.74;95.03
27210;BME280;14721;42.668;23.386;2022-07-29T00:32:30;95456.28;;;19.74;94.22
27210;BME280;14721;42.668;23.386;2022-07-29T00:34:57;95449.19;;;19.73;94.14
27210;BME280;14721;42.668;23.386;2022-07-29T00:37:41;95454.28;;;19.76;94.27
27210;BME280;14721;42.668;23.386;2022-07-29T00:40:07;95443.94;;;19.72;93.52
27210;BME280;14721;42.668;23.386;2022-07-29T00:42:45;95431.75;;;19.68;94.18
27210;BME280;14721;42.668;23.386;2022-07-29T00:45:14;95448.69;;;19.78;95.44
27210;BME280;14721;42.668;23.386;2022-07-29T00:47:41;95448.88;;;19.84;95.69
27210;BME280;14721;42.668;23.386;2022-07-29T00:50:10;95459.91;;;19.83;95.70
27210;BME280;14721;42.668;23.386;2022-07-29T00:52:37;95458.50;;;19.79;96.28
27210;BME280;14721;42.668;23.386;2022-07-29T00:55:05;95458.34;;;19.80;96.41
27210;BME280;14721;42.668;23.386;2022-07-29T00:57:32;95458.19;;;19.82;96.14
27210;BME280;14721;42.668;23.386;2022-07-29T00:59:57;95458.00;;;19.83;95.55
27210;BME280;14721;42.668;23.386;2022-07-29T01:02:24;95458.34;;;19.80;95.64
27210;BME280;14721;42.668;23.386;2022-07-29T01:04:50;95461.38;;;19.77;95.68
27210;BME280;14721;42.668;23.386;2022-07-29T01:07:17;95455.13;;;19.77;96.11
27210;BME280;14721;42.668;23.386;2022-07-29T01:09:44;95451.72;;;19.75;96.42
27210;BME280;14721;42.668;23.386;2022-07-29T01:12:16;95435.44;;;19.67;96.78
27210;BME280;14721;42.668;23.386;2022-07-29T01:14:43;95434.44;;;19.68;97.61
27210;BME280;14721;42.668;23.386;2022-07-29T01:23:07;95452.53;;;19.59;99.15
27210;BME280;14721;42.668;23.386;2022-07-29T01:28:47;95443.88;;;19.48;100.00
27210;BME280;14721;42.668;23.386;2022-07-29T01:31:27;95444.69;;;19.40;100.00
27210;BME280;14721;42.668;23.386;2022-07-29T01:34:02;95440.25;;;19.31;100.00
27210;BME280;14721;42.668;23.386;2022-07-29T01:36:33;95447.72;;;19.37;100.00
27210;BME280;14721;42.668;23.386;2022-07-29T01:39:23;95441.78;;;19.34;100.00
27210;BME280;14721;42.668;23.386;2022-07-29T01:42:01;95441.28;;;19.38;100.00
27210;BME280;14721;42.668;23.386;2022-07-29T01:44:39;95427.56;;;19.32;100.00
27210;BME280;14721;42.668;23.386;2022-07-29T01:47:12;95424.50;;;19.27;100.00
27210;BME280;14721;42.668;23.386;2022-07-29T01:49:43;95428.22;;;19.34;100.00
27210;BME280;14721;42.668;23.386;2022-07-29T01:52:19;95426.22;;;19.36;100.00
27210;BME280;14721;42.668;23.386;2022-07-29T01:54:50;95426.72;;;19.31;100.00
27210;BME280;14721;42.668;23.386;2022-07-29T01:57:19;95418.41;;;19.33;100.00
27210;BME280;14721;42.668;23.386;2022-07-29T01:59:47;95414.03;;;19.40;100.00
27210;BME280;14721;42.668;23.386;2022-07-29T02:02:18;95417.22;;;19.35;100.00
27210;BME280;14721;42.668;23.386;2022-07-29T02:04:46;95424.84;;;19.40;100.00
27210;BME280;14721;42.668;23.386;2022-07-29T02:07:18;95417.44;;;19.42;100.00
27210;BME280;14721;42.668;23.386;2022-07-29T02:09:45;95417.28;;;19.51;100.00
27210;BME280;14721;42.668;23.386;2022-07-29T02:12:11;95409.81;;;19.53;100.00
27210;BME280;14721;42.668;23.386;2022-07-29T02:14:46;95410.00;;;19.52;100.00
27210;BME280;14721;42.668;23.386;2022-07-29T02:17:13;95403.88;;;19.42;100.00
27210;BME280;14721;42.668;23.386;2022-07-29T02:19:42;95405.56;;;19.43;100.00
27210;BME280;14721;42.668;23.386;2022-07-29T02:22:08;95412.03;;;19.50;100.00
27210;BME280;14721;42.668;23.386;2022-07-29T02:24:37;95412.22;;;19.48;100.00
27210;BME280;14721;42.668;23.386;2022-07-29T02:27:05;95415.56;;;19.42;99.95
27210;BME280;14721;42.668;23.386;2022-07-29T02:29:34;95395.75;;;19.42;99.11
27210;BME280;14721;42.668;23.386;2022-07-29T02:32:01;95419.84;;;19.53;98.78
27210;BME280;14721;42.668;23.386;2022-07-29T02:34:30;95419.84;;;19.53;98.41
27210;BME280;14721;42.668;23.386;2022-07-29T02:36:56;95420.69;;;19.61;98.00
27210;BME280;14721;42.668;23.386;2022-07-29T02:39:22;95406.63;;;19.58;96.49
27210;BME280;14721;42.668;23.386;2022-07-29T02:41:57;95402.59;;;19.62;95.74
27210;BME280;14721;42.668;23.386;2022-07-29T02:44:27;95398.00;;;19.62;95.56
27210;BME280;14721;42.668;23.386;2022-07-29T02:47:04;95401.56;;;19.63;95.58
27210;BME280;14721;42.668;23.386;2022-07-29T02:49:44;95389.38;;;19.59;95.18
27210;BME280;14721;42.668;23.386;2022-07-29T02:52:26;95400.38;;;19.57;93.81
27210;BME280;14721;42.668;23.386;2022-07-29T02:55:01;95400.88;;;19.53;93.79
27210;BME280;14721;42.668;23.386;2022-07-29T02:57:43;95396.59;;;19.42;94.28
27210;BME280;14721;42.668;23.386;2022-07-29T03:00:10;95401.19;;;19.50;94.86
27210;BME280;14721;42.668;23.386;2022-07-29T03:02:40;95400.84;;;19.45;95.76
27210;BME280;14721;42.668;23.386;2022-07-29T03:05:11;95404.50;;;19.28;96.90
27210;BME280;14721;42.668;23.386;2022-07-29T03:07:40;95406.50;;;19.26;98.08
27210;BME280;14721;42.668;23.386;2022-07-29T03:10:08;95392.28;;;19.24;98.29
27210;BME280;14721;42.668;23.386;2022-07-29T03:12:35;95403.19;;;19.32;98.49
27210;BME280;14721;42.668;23.386;2022-07-29T03:15:02;95401.13;;;19.34;98.18
27210;BME280;14721;42.668;23.386;2022-07-29T03:17:28;95399.03;;;19.20;99.16
27210;BME280;14721;42.668;23.386;2022-07-29T03:19:55;95390.22;;;19.18;99.77
27210;BME280;14721;42.668;23.386;2022-07-29T03:22:21;95406.22;;;19.29;99.84
27210;BME280;14721;42.668;23.386;2022-07-29T03:24:46;95413.31;;;19.30;99.70
27210;BME280;14721;42.668;23.386;2022-07-29T03:27:12;95402.81;;;19.27;99.52
27210;BME280;14721;42.668;23.386;2022-07-29T03:29:39;95403.28;;;19.22;100.00
27210;BME280;14721;42.668;23.386;2022-07-29T03:32:05;95389.53;;;19.08;100.00
27210;BME280;14721;42.668;23.386;2022-07-29T03:34:30;95410.88;;;19.19;100.00
27210;BME280;14721;42.668;23.386;2022-07-29T03:36:58;95400.34;;;19.16;100.00
27210;BME280;14721;42.668;23.386;2022-07-29T03:39:27;95400.03;;;19.19;100.00
27210;BME280;14721;42.668;23.386;2022-07-29T03:41:55;95407.66;;;19.15;100.00
27210;BME280;14721;42.668;23.386;2022-07-29T03:44:24;95401.34;;;19.07;100.00
27210;BME280;14721;42.668;23.386;2022-07-29T03:46:55;95414.22;;;19.13;100.00
27210;BME280;14721;42.668;23.386;2022-07-29T03:49:24;95417.22;;;19.27;100.00
27210;BME280;14721;42.668;23.386;2022-07-29T03:51:51;95415.53;;;19.34;100.00
27210;BME280;14721;42.668;23.386;2022-07-29T03:54:17;95417.66;;;19.64;100.00
27210;BME280;14721;42.668;23.386;2022-07-29T03:56:45;95414.13;;;19.72;98.90
27210;BME280;14721;42.668;23.386;2022-07-29T03:59:14;95425.97;;;19.79;97.03
27210;BME280;14721;42.668;23.386;2022-07-29T04:01:41;95418.19;;;19.84;95.38
27210;BME280;14721;42.668;23.386;2022-07-29T04:04:08;95418.78;;;20.35;94.43
27210;BME280;14721;42.668;23.386;2022-07-29T04:06:43;95428.44;;;21.25;89.13
27210;BME280;14721;42.668;23.386;2022-07-29T04:09:11;95419.78;;;21.21;86.73
27210;BME280;14721;42.668;23.386;2022-07-29T04:11:39;95421.22;;;21.01;87.12
27210;BME280;14721;42.668;23.386;2022-07-29T04:14:06;95418.41;;;21.25;87.47
27210;BME280;14721;42.668;23.386;2022-07-29T04:16:32;95414.59;;;22.49;81.64
27210;BME280;14721;42.668;23.386;2022-07-29T04:18:58;95417.19;;;23.95;73.68
27210;BME280;14721;42.668;23.386;2022-07-29T04:21:25;95419.75;;;24.81;67.70
27210;BME280;14721;42.668;23.386;2022-07-29T04:23:52;95412.56;;;25.76;63.71
27210;BME280;14721;42.668;23.386;2022-07-29T04:26:19;95411.50;;;26.31;59.46
27210;BME280;14721;42.668;23.386;2022-07-29T04:28:45;95411.69;;;26.16;59.35
27210;BME280;14721;42.668;23.386;2022-07-29T04:31:12;95408.00;;;26.89;57.40
27210;BME280;14721;42.668;23.386;2022-07-29T04:33:39;95402.03;;;27.57;55.13
27210;BME280;14721;42.668;23.386;2022-07-29T04:36:05;95416.97;;;27.74;54.12
27210;BME280;14721;42.668;23.386;2022-07-29T04:38:34;95419.97;;;28.17;53.45
27210;BME280;14721;42.668;23.386;2022-07-29T04:40:59;95413.28;;;28.75;52.44
27210;BME280;14721;42.668;23.386;2022-07-29T04:43:26;95415.69;;;29.45;50.26
27210;BME280;14721;42.668;23.386;2022-07-29T04:45:51;95423.22;;;30.28;46.72
27210;BME280;14721;42.668;23.386;2022-07-29T04:48:17;95416.78;;;30.16;47.28
27210;BME280;14721;42.668;23.386;2022-07-29T04:50:47;95418.22;;;30.55;46.06
27210;BME280;14721;42.668;23.386;2022-07-29T04:53:12;95425.53;;;30.31;46.37
27210;BME280;14721;42.668;23.386;2022-07-29T04:55:39;95431.59;;;31.22;43.38
27210;BME280;14721;42.668;23.386;2022-07-29T04:58:07;95429.50;;;30.94;43.42
27210;BME280;14721;42.668;23.386;2022-07-29T05:00:33;95409.94;;;30.84;43.89
27210;BME280;14721;42.668;23.386;2022-07-29T05:03:01;95425.09;;;31.05;44.01
27210;BME280;14721;42.668;23.386;2022-07-29T05:05:27;95414.16;;;30.98;42.97
27210;BME280;14721;42.668;23.386;2022-07-29T05:07:53;95432.47;;;30.52;44.44
27210;BME280;14721;42.668;23.386;2022-07-29T05:10:21;95428.22;;;30.20;45.51
27210;BME280;14721;42.668;23.386;2022-07-29T05:12:51;95428.50;;;30.30;45.17
27210;BME280;14721;42.668;23.386;2022-07-29T05:15:17;95438.63;;;30.36;43.93
27210;BME280;14721;42.668;23.386;2022-07-29T05:17:44;95432.81;;;30.08;44.75
27210;BME280;14721;42.668;23.386;2022-07-29T05:20:09;95434.09;;;30.41;43.96
27210;BME280;14721;42.668;23.386;2022-07-29T05:22:35;95441.22;;;30.13;45.39
27210;BME280;14721;42.668;23.386;2022-07-29T05:25:03;95442.50;;;30.10;45.28
27210;BME280;14721;42.668;23.386;2022-07-29T05:27:29;95433.75;;;30.20;43.99
27210;BME280;14721;42.668;23.386;2022-07-29T05:29:54;95430.81;;;30.33;43.61
27210;BME280;14721;42.668;23.386;2022-07-29T05:32:21;95443.38;;;30.29;44.42
27210;BME280;14721;42.668;23.386;2022-07-29T05:34:47;95438.69;;;30.47;43.80
27210;BME280;14721;42.668;23.386;2022-07-29T05:37:15;95435.25;;;30.63;43.02
27210;BME280;14721;42.668;23.386;2022-07-29T05:39:40;95439.81;;;30.87;42.36
27210;BME280;14721;42.668;23.386;2022-07-29T05:42:08;95438.31;;;30.26;43.97
27210;BME280;14721;42.668;23.386;2022-07-29T05:44:38;95442.34;;;30.59;43.51
27210;BME280;14721;42.668;23.386;2022-07-29T05:47:05;95435.88;;;30.65;42.90
27210;BME280;14721;42.668;23.386;2022-07-29T05:49:32;95446.69;;;30.19;43.31
27210;BME280;14721;42.668;23.386;2022-07-29T05:51:57;95442.69;;;29.79;45.06
27210;BME280;14721;42.668;23.386;2022-07-29T05:54:25;95438.16;;;29.85;44.24
27210;BME280;14721;42.668;23.386;2022-07-29T05:56:51;95448.81;;;29.99;44.50
27210;BME280;14721;42.668;23.386;2022-07-29T05:59:18;95443.75;;;30.14;44.33
27210;BME280;14721;42.668;23.386;2022-07-29T06:01:50;95444.94;;;30.25;44.60
27210;BME280;14721;42.668;23.386;2022-07-29T06:04:16;95452.31;;;30.42;43.41
27210;BME280;14721;42.668;23.386;2022-07-29T06:06:41;95452.25;;;30.49;43.77
27210;BME280;14721;42.668;23.386;2022-07-29T06:09:07;95439.16;;;30.74;42.63
27210;BME280;14721;42.668;23.386;2022-07-29T06:11:33;95447.78;;;30.12;43.93
27210;BME280;14721;42.668;23.386;2022-07-29T06:13:58;95449.81;;;30.23;43.86
27210;BME280;14721;42.668;23.386;2022-07-29T06:16:24;95445.84;;;30.19;44.43
27210;BME280;14721;42.668;23.386;2022-07-29T06:18:49;95434.34;;;30.04;45.02
27210;BME280;14721;42.668;23.386;2022-07-29T06:21:16;95448.28;;;30.27;45.41
27210;BME280;14721;42.668;23.386;2022-07-29T06:23:42;95439.22;;;30.67;44.88
27210;BME280;14721;42.668;23.386;2022-07-29T06:26:08;95448.72;;;30.24;44.92
27210;BME280;14721;42.668;23.386;2022-07-29T06:28:36;95448.66;;;30.12;45.13
27210;BME280;14721;42.668;23.386;2022-07-29T06:31:02;95446.06;;;29.81;46.01
27210;BME280;14721;42.668;23.386;2022-07-29T06:33:27;95423.09;;;30.23;46.04
27210;BME280;14721;42.668;23.386;2022-07-29T06:35:55;95432.47;;;30.52;45.08
27210;BME280;14721;42.668;23.386;2022-07-29T06:38:20;95441.00;;;30.62;44.04
27210;BME280;14721;42.668;23.386;2022-07-29T06:40:46;95439.31;;;30.31;43.95
27210;BME280;14721;42.668;23.386;2022-07-29T06:43:40;95431.94;;;30.43;44.57
27210;BME280;14721;42.668;23.386;2022-07-29T06:46:14;95433.44;;;30.28;44.72
27210;BME280;14721;42.668;23.386;2022-07-29T06:48:42;95432.13;;;30.89;43.25
27210;BME280;14721;42.668;23.386;2022-07-29T06:51:08;95430.44;;;30.88;43.13
27210;BME280;14721;42.668;23.386;2022-07-29T06:53:34;95436.75;;;31.07;43.75
27210;BME280;14721;42.668;23.386;2022-07-29T06:56:01;95430.28;;;31.25;45.19
27210;BME280;14721;42.668;23.386;2022-07-29T06:58:28;95437.09;;;30.40;42.57
27210;BME280;14721;42.668;23.386;2022-07-29T07:00:55;95430.22;;;30.90;41.81
27210;BME280;14721;42.668;23.386;2022-07-29T07:03:28;95427.53;;;30.54;42.23
27210;BME280;14721;42.668;23.386;2022-07-29T07:05:54;95431.75;;;30.74;42.31
27210;BME280;14721;42.668;23.386;2022-07-29T07:08:22;95417.44;;;30.48;42.43
27210;BME280;14721;42.668;23.386;2022-07-29T07:10:49;95414.66;;;31.07;41.31
27210;BME280;14721;42.668;23.386;2022-07-29T07:13:15;95428.09;;;31.04;41.06
27210;BME280;14721;42.668;23.386;2022-07-29T07:15:46;95427.13;;;30.98;40.70
27210;BME280;14721;42.668;23.386;2022-07-29T07:18:19;95430.94;;;30.97;41.36
27210;BME280;14721;42.668;23.386;2022-07-29T07:20:46;95420.09;;;31.25;40.28
27210;BME280;14721;42.668;23.386;2022-07-29T07:23:12;95424.69;;;31.43;40.81
27210;BME280;14721;42.668;23.386;2022-07-29T07:25:38;95422.63;;;31.38;39.66
27210;BME280;14721;42.668;23.386;2022-07-29T07:28:05;95420.47;;;30.76;41.30
27210;BME280;14721;42.668;23.386;2022-07-29T07:30:32;95426.44;;;31.14;40.08
27210;BME280;14721;42.668;23.386;2022-07-29T07:32:59;95400.66;;;31.55;40.65
27210;BME280;14721;42.668;23.386;2022-07-29T07:35:25;95422.28;;;31.58;39.52
27210;BME280;14721;42.668;23.386;2022-07-29T07:37:53;95420.44;;;31.17;40.54
27210;BME280;14721;42.668;23.386;2022-07-29T07:40:19;95411.50;;;31.45;39.83
27210;BME280;14721;42.668;23.386;2022-07-29T07:42:45;95419.09;;;31.20;40.43
27210;BME280;14721;42.668;23.386;2022-07-29T07:45:11;95410.97;;;31.71;40.53
27210;BME280;14721;42.668;23.386;2022-07-29T07:47:38;95414.84;;;31.58;38.96
27210;BME280;14721;42.668;23.386;2022-07-29T07:50:05;95407.41;;;31.47;39.59
27210;BME280;14721;42.668;23.386;2022-07-29T07:52:33;95402.81;;;31.99;39.34
27210;BME280;14721;42.668;23.386;2022-07-29T07:54:59;95408.88;;;32.35;37.94
27210;BME280;14721;42.668;23.386;2022-07-29T07:57:25;95410.72;;;32.18;38.31
27210;BME280;14721;42.668;23.386;2022-07-29T07:59:52;95404.38;;;31.95;38.70
27210;BME280;14721;42.668;23.386;2022-07-29T08:02:18;95411.53;;;32.19;36.97
27210;BME280;14721;42.668;23.386;2022-07-29T08:04:43;95405.44;;;32.05;37.49
27210;BME280;14721;42.668;23.386;2022-07-29T08:07:09;95412.44;;;31.73;38.15
27210;BME280;14721;42.668;23.386;2022-07-29T08:09:35;95406.19;;;31.78;38.08
27210;BME280;14721;42.668;23.386;2022-07-29T08:12:00;95404.50;;;32.00;37.55
27210;BME280;14721;42.668;23.386;2022-07-29T08:14:29;95402.94;;;31.69;37.68
27210;BME280;14721;42.668;23.386;2022-07-29T08:16:55;95406.66;;;32.09;37.71
27210;BME280;14721;42.668;23.386;2022-07-29T08:19:21;95400.78;;;32.34;37.17
27210;BME280;14721;42.668;23.386;2022-07-29T08:21:46;95400.38;;;32.82;37.00
27210;BME280;14721;42.668;23.386;2022-07-29T08:24:13;95385.34;;;32.78;36.50
27210;BME280;14721;42.668;23.386;2022-07-29T08:26:57;95383.75;;;32.65;35.42
27210;BME280;14721;42.668;23.386;2022-07-29T08:29:22;95394.53;;;32.38;36.07
27210;BME280;14721;42.668;23.386;2022-07-29T08:31:48;95387.38;;;32.54;35.56
27210;BME280;14721;42.668;23.386;2022-07-29T08:34:13;95381.25;;;32.52;35.69
27210;BME280;14721;42.668;23.386;2022-07-29T08:36:39;95399.38;;;32.59;34.44
27210;BME280;14721;42.668;23.386;2022-07-29T08:39:05;95382.00;;;32.08;34.71
27210;BME280;14721;42.668;23.386;2022-07-29T08:41:30;95380.97;;;32.25;33.85
27210;BME280;14721;42.668;23.386;2022-07-29T08:43:57;95391.03;;;32.43;34.38
27210;BME280;14721;42.668;23.386;2022-07-29T08:46:23;95392.91;;;32.14;34.73
27210;BME280;14721;42.668;23.386;2022-07-29T08:48:49;95389.75;;;31.60;35.40
27210;BME280;14721;42.668;23.386;2022-07-29T08:51:16;95377.59;;;31.61;35.46
27210;BME280;14721;42.668;23.386;2022-07-29T08:53:44;95377.88;;;31.82;34.57
27210;BME280;14721;42.668;23.386;2022-07-29T08:56:18;95374.47;;;31.80;35.30
27210;BME280;14721;42.668;23.386;2022-07-29T08:58:46;95370.16;;;32.35;33.88
27210;BME280;14721;42.668;23.386;2022-07-29T09:01:14;95384.41;;;32.04;33.49
27210;BME280;14721;42.668;23.386;2022-07-29T09:03:44;95372.44;;;31.87;34.56
27210;BME280;14721;42.668;23.386;2022-07-29T09:06:13;95375.09;;;32.22;33.94
27210;BME280;14721;42.668;23.386;2022-07-29T09:08:39;95387.13;;;32.27;33.13
27210;BME280;14721;42.668;23.386;2022-07-29T09:11:06;95365.47;;;31.73;34.77
27210;BME280;14721;42.668;23.386;2022-07-29T09:13:33;95364.25;;;31.23;35.63
27210;BME280;14721;42.668;23.386;2022-07-29T09:15:59;95362.69;;;31.62;35.45
27210;BME280;14721;42.668;23.386;2022-07-29T09:18:39;95367.59;;;30.79;35.50
27210;BME280;14721;42.668;23.386;2022-07-29T09:21:10;95367.63;;;30.61;36.35
27210;BME280;14721;42.668;23.386;2022-07-29T09:24:06;95359.13;;;30.33;37.72
27210;BME280;14721;42.668;23.386;2022-07-29T09:26:40;95360.25;;;29.96;38.38
27210;BME280;14721;42.668;23.386;2022-07-29T09:29:10;95373.81;;;29.79;39.37
27210;BME280;14721;42.668;23.386;2022-07-29T09:31:41;95370.28;;;29.90;38.46
27210;BME280;14721;42.668;23.386;2022-07-29T09:34:08;95357.81;;;29.70;38.78
27210;BME280;14721;42.668;23.386;2022-07-29T09:36:45;95361.28;;;29.23;39.83
27210;BME280;14721;42.668;23.386;2022-07-29T09:39:12;95355.69;;;29.11;40.32
27210;BME280;14721;42.668;23.386;2022-07-29T09:41:52;95363.28;;;29.52;40.11
27210;BME280;14721;42.668;23.386;2022-07-29T09:44:41;95359.31;;;30.02;38.23
27210;BME280;14721;42.668;23.386;2022-07-29T09:47:06;95343.22;;;30.46;38.30
27210;BME280;14721;42.668;23.386;2022-07-29T09:49:50;95347.56;;;30.54;37.79
27210;BME280;14721;42.668;23.386;2022-07-29T09:52:16;95351.91;;;30.61;37.77
27210;BME280;14721;42.668;23.386;2022-07-29T09:54:41;95347.38;;;30.67;37.81
27210;BME280;14721;42.668;23.386;2022-07-29T09:57:09;95339.50;;;30.41;37.37
27210;BME280;14721;42.668;23.386;2022-07-29T09:59:38;95337.38;;;30.43;37.14
27210;BME280;14721;42.668;23.386;2022-07-29T10:02:12;95325.28;;;30.55;36.66
27210;BME280;14721;42.668;23.386;2022-07-29T10:04:41;95325.16;;;30.50;36.75
27210;BME280;14721;42.668;23.386;2022-07-29T10:07:09;95329.00;;;30.20;36.22
27210;BME280;14721;42.668;23.386;2022-07-29T10:09:35;95322.72;;;30.13;37.95
27210;BME280;14721;42.668;23.386;2022-07-29T10:12:12;95326.97;;;29.97;37.49
27210;BME280;14721;42.668;23.386;2022-07-29T10:14:43;95327.69;;;29.75;38.54
27210;BME280;14721;42.668;23.386;2022-07-29T10:17:10;95318.28;;;29.64;37.14
27210;BME280;14721;42.668;23.386;2022-07-29T10:19:46;95316.50;;;29.70;37.90
27210;BME280;14721;42.668;23.386;2022-07-29T10:22:13;95308.09;;;29.47;38.41
27210;BME280;14721;42.668;23.386;2022-07-29T10:24:41;95305.47;;;29.34;39.20
27210;BME280;14721;42.668;23.386;2022-07-29T10:27:08;95307.94;;;29.42;38.48
27210;BME280;14721;42.668;23.386;2022-07-29T10:29:35;95305.88;;;29.55;37.61
27210;BME280;14721;42.668;23.386;2022-07-29T10:32:15;95304.78;;;29.74;38.24
27210;BME280;14721;42.668;23.386;2022-07-29T10:35:21;95282.53;;;29.76;36.38
27210;BME280;14721;42.668;23.386;2022-07-29T10:43:36;95295.22;;;29.95;36.79
27210;BME280;14721;42.668;23.386;2022-07-29T10:46:03;95286.91;;;30.13;36.53
27210;BME280;14721;42.668;23.386;2022-07-29T10:49:03;95284.72;;;30.15;36.15
27210;BME280;14721;42.668;23.386;2022-07-29T10:51:24;95282.16;;;30.31;36.32
27210;BME280;14721;42.668;23.386;2022-07-29T10:53:52;95276.66;;;30.31;36.20
27210;BME280;14721;42.668;23.386;2022-07-29T10:56:30;95271.13;;;30.20;36.59
27210;BME280;14721;42.668;23.386;2022-07-29T11:01:47;95274.50;;;30.22;37.24
27210;BME280;14721;42.668;23.386;2022-07-29T11:04:13;95274.84;;;30.25;36.38
27210;BME280;14721;42.668;23.386;2022-07-29T11:09:29;95270.38;;;30.13;37.05
27210;BME280;14721;42.668;23.386;2022-07-29T11:11:59;95269.97;;;30.09;37.21
27210;BME280;14721;42.668;23.386;2022-07-29T11:17:24;95257.63;;;30.12;37.09
27210;BME280;14721;42.668;23.386;2022-07-29T11:19:50;95252.44;;;30.22;37.64
27210;BME280;14721;42.668;23.386;2022-07-29T11:22:35;95249.22;;;30.36;37.11
27210;BME280;14721;42.668;23.386;2022-07-29T11:25:13;95240.88;;;30.43;36.91
27210;BME280;14721;42.668;23.386;2022-07-29T11:27:40;95252.38;;;30.51;36.23
27210;BME280;14721;42.668;23.386;2022-07-29T11:30:07;95261.13;;;30.48;37.03
27210;BME280;14721;42.668;23.386;2022-07-29T11:32:40;95236.53;;;30.47;37.26
27210;BME280;14721;42.668;23.386;2022-07-29T11:35:19;95241.19;;;30.35;36.64
27210;BME280;14721;42.668;23.386;2022-07-29T11:41:41;95250.00;;;30.66;35.53
27210;BME280;14721;42.668;23.386;2022-07-29T11:44:08;95230.31;;;30.63;35.70
27210;BME280;14721;42.668;23.386;2022-07-29T11:46:52;95231.06;;;30.70;35.35
27210;BME280;14721;42.668;23.386;2022-07-29T11:49:22;95231.63;;;30.72;35.22
27210;BME280;14721;42.668;23.386;2022-07-29T11:51:54;95230.06;;;30.64;34.99
27210;BME280;14721;42.668;23.386;2022-07-29T11:54:33;95231.41;;;30.62;36.13
27210;BME280;14721;42.668;23.386;2022-07-29T11:57:01;95223.75;;;30.75;35.12
27210;BME280;14721;42.668;23.386;2022-07-29T11:59:28;95207.69;;;30.84;35.64
27210;BME280;14721;42.668;23.386;2022-07-29T12:04:19;95227.81;;;30.96;35.19
27210;BME280;14721;42.668;23.386;2022-07-29T12:06:53;95217.38;;;30.98;35.48
27210;BME280;14721;42.668;23.386;2022-07-29T12:09:19;95217.47;;;31.03;35.09
27210;BME280;14721;42.668;23.386;2022-07-29T12:11:48;95239.72;;;30.97;34.83
27210;BME280;14721;42.668;23.386;2022-07-29T12:14:31;95220.88;;;30.93;34.95
27210;BME280;14721;42.668;23.386;2022-07-29T12:16:58;95214.88;;;30.97;35.25
27210;BME280;14721;42.668;23.386;2022-07-29T12:19:26;95214.72;;;31.03;34.45
27210;BME280;14721;42.668;23.386;2022-07-29T12:21:54;95213.91;;;30.91;35.15
27210;BME280;14721;42.668;23.386;2022-07-29T12:24:23;95221.94;;;30.92;35.22
27210;BME280;14721;42.668;23.386;2022-07-29T12:26:55;95224.34;;;31.01;35.55
27210;BME280;14721;42.668;23.386;2022-07-29T12:29:23;95218.47;;;31.09;34.38
27210;BME280;14721;42.668;23.386;2022-07-29T12:31:53;95209.56;;;31.07;34.60
27210;BME280;14721;42.668;23.386;2022-07-29T12:34:23;95205.72;;;31.08;34.41
27210;BME280;14721;42.668;23.386;2022-07-29T12:36:49;95198.66;;;31.00;34.83
27210;BME280;14721;42.668;23.386;2022-07-29T12:39:16;95204.50;;;31.15;33.73
27210;BME280;14721;42.668;23.386;2022-07-29T12:41:42;95200.44;;;31.18;34.11
27210;BME280;14721;42.668;23.386;2022-07-29T12:44:08;95199.47;;;31.24;34.33
27210;BME280;14721;42.668;23.386;2022-07-29T12:46:34;95202.47;;;31.34;33.85
27210;BME280;14721;42.668;23.386;2022-07-29T12:48:59;95199.47;;;31.24;34.39
27210;BME280;14721;42.668;23.386;2022-07-29T12:51:35;95208.09;;;31.27;34.32
27210;BME280;14721;42.668;23.386;2022-07-29T12:54:10;95203.56;;;31.33;34.78
27210;BME280;14721;42.668;23.386;2022-07-29T12:56:38;95195.84;;;31.46;34.36
27210;BME280;14721;42.668;23.386;2022-07-29T12:59:21;95185.84;;;31.45;34.05
27210;BME280;14721;42.668;23.386;2022-07-29T13:01:49;95189.22;;;31.47;33.63
27210;BME280;14721;42.668;23.386;2022-07-29T13:04:26;95180.81;;;31.42;33.73
27210;BME280;14721;42.668;23.386;2022-07-29T13:06:59;95183.00;;;31.40;34.39
27210;BME280;14721;42.668;23.386;2022-07-29T13:09:44;95172.53;;;31.42;34.03
27210;BME280;14721;42.668;23.386;2022-07-29T13:12:14;95169.69;;;31.37;34.81
27210;BME280;14721;42.668;23.386;2022-07-29T13:14:47;95176.63;;;31.40;34.23
27210;BME280;14721;42.668;23.386;2022-07-29T13:17:16;95174.38;;;31.37;34.11
27210;BME280;14721;42.668;23.386;2022-07-29T13:19:49;95168.22;;;31.46;34.52
27210;BME280;14721;42.668;23.386;2022-07-29T13:22:19;95165.28;;;31.53;34.32
27210;BME280;14721;42.668;23.386;2022-07-29T13:24:53;95162.03;;;31.56;34.95
27210;BME280;14721;42.668;23.386;2022-07-29T13:27:22;95154.84;;;31.55;34.61